createdAt,value
2019-03-21T00:01:36.192Z,9.20
2019-03-21T00:04:11.198Z,9.24
2019-03-21T00:06:40.777Z,9.24
2019-03-21T00:09:12.502Z,9.17
2019-03-21T00:12:03.899Z,9.22
2019-03-21T00:15:12.231Z,9.20
2019-03-21T00:17:47.659Z,9.28
2019-03-21T00:20:17.915Z,9.23
2019-03-21T00:22:47.455Z,9.29
2019-03-21T00:25:19.569Z,9.27
2019-03-21T00:27:49.263Z,9.32
2019-03-21T00:30:20.501Z,9.29
2019-03-21T00:32:50.048Z,9.36
2019-03-21T00:35:19.636Z,9.35
2019-03-21T00:37:49.627Z,9.44
2019-03-21T00:40:22.653Z,9.40
2019-03-21T00:42:52.398Z,9.37
2019-03-21T00:45:21.972Z,9.43
2019-03-21T00:47:51.646Z,9.35
2019-03-21T00:50:22.474Z,9.40
2019-03-21T00:52:53.204Z,9.32
2019-03-21T00:55:23.123Z,9.33
2019-03-21T00:57:52.664Z,9.38
2019-03-21T01:00:25.350Z,9.37
2019-03-21T01:02:54.898Z,9.41
2019-03-21T01:05:24.484Z,9.42
2019-03-21T01:07:54.033Z,9.41
2019-03-21T01:10:24.415Z,9.33
2019-03-21T01:12:53.958Z,9.31
2019-03-21T01:15:23.497Z,9.27
2019-03-21T01:17:53.150Z,9.33
2019-03-21T01:20:22.692Z,9.32
2019-03-21T01:22:52.525Z,9.30
2019-03-21T01:25:28.391Z,9.23
2019-03-21T01:27:58.034Z,9.19
2019-03-21T01:30:27.637Z,9.19
2019-03-21T01:32:57.181Z,9.22
2019-03-21T01:35:26.734Z,9.18
2019-03-21T01:37:56.309Z,9.21
2019-03-21T01:40:26.536Z,9.16
2019-03-21T01:42:56.577Z,9.13
2019-03-21T01:45:26.216Z,9.20
2019-03-21T01:47:55.774Z,9.16
2019-03-21T01:50:25.389Z,9.12
2019-03-21T01:52:54.968Z,9.16
2019-03-21T01:55:24.511Z,9.11
2019-03-21T01:57:54.024Z,9.08
2019-03-21T02:00:26.546Z,9.07
2019-03-21T02:02:57.517Z,9.09
2019-03-21T02:05:27.209Z,9.10
2019-03-21T02:07:56.804Z,9.12
2019-03-21T02:10:26.493Z,9.07
2019-03-21T02:12:55.959Z,9.06
2019-03-21T02:15:25.654Z,9.01
2019-03-21T02:17:55.237Z,8.91
2019-03-21T02:20:24.782Z,8.88
2019-03-21T02:22:54.373Z,8.80
2019-03-21T02:25:25.893Z,8.80
2019-03-21T02:27:55.643Z,8.79
2019-03-21T02:30:27.883Z,8.81
2019-03-21T02:33:00.702Z,8.79
2019-03-21T02:35:31.114Z,8.74
2019-03-21T02:41:28.881Z,8.55
2019-03-21T02:43:58.452Z,8.46
2019-03-21T02:46:28.033Z,8.49
2019-03-21T02:48:57.735Z,8.50
2019-03-21T02:51:27.279Z,8.40
2019-03-21T02:53:56.859Z,8.45
2019-03-21T02:56:26.506Z,8.41
2019-03-21T02:58:56.378Z,8.45
2019-03-21T03:01:25.965Z,8.47
2019-03-21T03:03:56.008Z,8.43
2019-03-21T03:06:25.589Z,8.41
2019-03-21T03:08:55.075Z,8.39
2019-03-21T03:11:25.016Z,8.44
2019-03-21T03:13:54.602Z,8.35
2019-03-21T03:16:24.232Z,8.40
2019-03-21T03:18:54.349Z,8.39
2019-03-21T03:21:23.884Z,8.39
2019-03-21T03:23:53.362Z,8.38
2019-03-21T03:26:22.943Z,8.40
2019-03-21T03:28:52.572Z,8.36
2019-03-21T03:31:22.031Z,8.35
2019-03-21T03:33:51.579Z,8.31
2019-03-21T03:36:21.165Z,8.30
2019-03-21T03:38:50.747Z,8.32
2019-03-21T03:41:20.315Z,8.30
2019-03-21T03:43:49.850Z,8.36
2019-03-21T03:46:19.385Z,8.35
2019-03-21T03:48:48.968Z,8.35
2019-03-21T03:51:18.530Z,8.31
2019-03-21T03:53:48.172Z,8.34
2019-03-21T03:56:18.077Z,8.37
2019-03-21T03:58:48.791Z,8.36
2019-03-21T04:01:18.387Z,8.34
2019-03-21T04:03:48.181Z,8.34
2019-03-21T04:06:17.997Z,8.27
2019-03-21T04:08:47.543Z,8.25
2019-03-21T04:11:17.109Z,8.29
2019-03-21T04:13:46.731Z,8.23
2019-03-21T04:16:16.271Z,8.27
2019-03-21T04:18:45.865Z,8.31
2019-03-21T04:21:15.471Z,8.31
2019-03-21T04:23:45.311Z,8.40
2019-03-21T04:26:21.241Z,8.39
2019-03-21T04:28:50.859Z,8.37
2019-03-21T04:31:20.455Z,8.41
2019-03-21T04:33:50.328Z,8.31
2019-03-21T04:36:19.903Z,8.27
2019-03-21T04:38:49.569Z,8.29
2019-03-21T04:41:19.039Z,8.34
2019-03-21T04:43:48.619Z,8.30
2019-03-21T04:46:18.202Z,8.34
2019-03-21T04:48:47.711Z,8.35
2019-03-21T04:51:17.299Z,8.28
2019-03-21T04:53:46.909Z,8.26
2019-03-21T04:56:16.843Z,8.27
2019-03-21T04:58:46.313Z,8.31
2019-03-21T05:01:15.839Z,8.24
2019-03-21T05:03:45.376Z,8.25
2019-03-21T05:06:14.934Z,8.34
2019-03-21T05:08:44.520Z,8.26
2019-03-21T05:11:14.143Z,8.29
2019-03-21T05:13:43.734Z,8.32
2019-03-21T05:16:14.989Z,8.26
2019-03-21T05:18:45.412Z,8.25
2019-03-21T05:21:15.942Z,8.26
2019-03-21T05:23:45.538Z,8.29
2019-03-21T05:26:15.498Z,8.29
2019-03-21T05:28:45.043Z,8.30
2019-03-21T05:31:18.100Z,8.34
2019-03-21T05:33:47.800Z,8.42
2019-03-21T05:36:17.341Z,8.31
2019-03-21T05:38:46.915Z,8.31
2019-03-21T05:41:16.603Z,8.36
2019-03-21T05:43:59.103Z,8.36
2019-03-21T05:46:29.054Z,8.41
2019-03-21T05:48:58.600Z,8.40
2019-03-21T05:51:28.182Z,8.38
2019-03-21T05:53:57.724Z,8.45
2019-03-21T05:56:27.316Z,8.44
2019-03-21T05:58:56.905Z,8.44
2019-03-21T06:01:26.481Z,8.48
2019-03-21T06:03:56.071Z,8.54
2019-03-21T06:06:34.068Z,8.49
2019-03-21T06:09:04.803Z,8.53
2019-03-21T06:11:34.386Z,8.51
2019-03-21T06:14:04.503Z,8.57
2019-03-21T06:16:37.864Z,8.53
2019-03-21T06:19:30.109Z,8.53
2019-03-21T06:22:18.146Z,8.50
2019-03-21T06:25:10.658Z,8.56
2019-03-21T06:27:40.278Z,8.48
2019-03-21T06:30:11.400Z,8.56
2019-03-21T06:32:41.059Z,8.59
2019-03-21T06:35:21.508Z,8.60
2019-03-21T06:37:51.293Z,8.67
2019-03-21T06:40:20.891Z,8.63
2019-03-21T06:42:50.458Z,8.67
2019-03-21T06:45:19.936Z,8.70
2019-03-21T06:47:49.506Z,8.69
2019-03-21T06:50:18.969Z,8.75
2019-03-21T06:52:48.570Z,8.81
2019-03-21T06:55:18.198Z,8.84
2019-03-21T06:57:48.124Z,8.84
2019-03-21T07:00:17.713Z,8.83
2019-03-21T07:02:47.178Z,8.77
2019-03-21T07:05:16.758Z,8.76
2019-03-21T07:07:46.302Z,8.79
2019-03-21T07:10:16.082Z,8.87
2019-03-21T07:12:45.641Z,8.84
2019-03-21T07:15:15.325Z,8.92
2019-03-21T07:17:44.857Z,8.95
2019-03-21T07:20:14.450Z,8.98
2019-03-21T07:22:44.093Z,8.96
2019-03-21T07:25:13.772Z,9.02
2019-03-21T07:27:43.329Z,9.03
2019-03-21T07:30:14.196Z,9.10
2019-03-21T07:32:43.783Z,9.23
2019-03-21T07:35:13.576Z,9.15
2019-03-21T07:37:43.113Z,9.27
2019-03-21T07:40:13.198Z,9.34
2019-03-21T07:42:42.878Z,9.30
2019-03-21T07:45:12.947Z,9.44
2019-03-21T07:47:42.486Z,9.45
2019-03-21T07:50:12.399Z,9.51
2019-03-21T07:52:41.992Z,9.49
2019-03-21T07:55:11.913Z,9.44
2019-03-21T07:57:41.563Z,9.58
2019-03-21T08:00:12.674Z,9.59
2019-03-21T08:02:42.301Z,9.69
2019-03-21T08:05:12.258Z,9.76
2019-03-21T08:07:41.861Z,9.87
2019-03-21T08:10:11.675Z,9.98
2019-03-21T08:12:41.247Z,10.07
2019-03-21T08:15:11.620Z,10.03
2019-03-21T08:17:41.313Z,10.10
2019-03-21T08:20:11.447Z,10.19
2019-03-21T08:22:41.044Z,10.22
2019-03-21T08:25:10.848Z,10.32
2019-03-21T08:27:40.542Z,10.43
2019-03-21T08:30:16.111Z,10.62
2019-03-21T08:32:45.703Z,10.79
2019-03-21T08:35:15.249Z,10.81
2019-03-21T08:37:44.789Z,10.87
2019-03-21T08:40:14.784Z,10.94
2019-03-21T08:42:44.299Z,10.95
2019-03-21T08:45:14.189Z,11.10
2019-03-21T08:47:43.739Z,11.19
2019-03-21T08:50:13.379Z,11.06
2019-03-21T08:52:42.995Z,11.10
2019-03-21T08:55:12.685Z,11.07
2019-03-21T08:57:42.227Z,11.03
2019-03-21T09:00:11.945Z,11.05
2019-03-21T09:02:41.535Z,11.20
2019-03-21T09:05:11.091Z,11.27
2019-03-21T09:07:40.561Z,11.25
2019-03-21T09:10:10.575Z,11.33
2019-03-21T09:12:42.537Z,11.36
2019-03-21T09:15:11.637Z,11.45
2019-03-21T09:17:41.271Z,11.44
2019-03-21T09:20:11.239Z,11.33
2019-03-21T09:22:40.787Z,11.29
2019-03-21T09:25:10.632Z,11.35
2019-03-21T09:27:40.176Z,11.25
2019-03-21T09:30:10.277Z,11.33
2019-03-21T09:32:39.833Z,11.32
2019-03-21T09:35:12.351Z,11.26
2019-03-21T09:37:41.283Z,11.25
2019-03-21T09:40:11.157Z,11.36
2019-03-21T09:42:40.697Z,11.48
2019-03-21T09:45:10.322Z,11.43
2019-03-21T09:47:39.962Z,11.52
2019-03-21T09:50:09.782Z,11.46
2019-03-21T09:52:39.318Z,11.50
2019-03-21T09:55:08.953Z,11.57
2019-03-21T09:57:38.647Z,11.58
2019-03-21T10:00:08.673Z,11.50
2019-03-21T10:02:38.215Z,11.53
2019-03-21T10:05:08.258Z,11.56
2019-03-21T10:07:37.853Z,11.52
2019-03-21T10:10:07.420Z,11.51
2019-03-21T10:12:36.889Z,11.40
2019-03-21T10:15:06.651Z,11.43
2019-03-21T10:17:36.244Z,11.53
2019-03-21T10:20:06.368Z,11.50
2019-03-21T10:22:35.954Z,11.43
2019-03-21T10:25:05.818Z,11.48
2019-03-21T10:27:35.330Z,11.49
2019-03-21T10:30:05.739Z,11.63
2019-03-21T10:32:35.339Z,11.66
2019-03-21T10:35:05.842Z,11.74
2019-03-21T10:37:35.449Z,11.76
2019-03-21T10:40:05.527Z,11.91
2019-03-21T10:42:35.041Z,11.93
2019-03-21T10:45:05.325Z,11.95
2019-03-21T10:47:34.907Z,11.95
2019-03-21T10:50:05.336Z,11.97
2019-03-21T10:52:35.028Z,12.16
2019-03-21T10:55:04.944Z,12.16
2019-03-21T10:57:34.821Z,12.17
2019-03-21T11:00:05.927Z,12.28
2019-03-21T11:02:35.470Z,12.46
2019-03-21T11:05:05.655Z,12.60
2019-03-21T11:07:35.235Z,12.56
2019-03-21T11:10:05.557Z,12.52
2019-03-21T11:12:35.487Z,12.77
2019-03-21T11:15:05.369Z,12.79
2019-03-21T11:17:35.315Z,12.60
2019-03-21T11:20:05.105Z,12.59
2019-03-21T11:22:34.651Z,12.52
2019-03-21T11:25:04.486Z,12.54
2019-03-21T11:27:34.026Z,12.52
2019-03-21T11:30:11.750Z,12.43
2019-03-21T11:32:35.378Z,12.49
2019-03-21T11:35:05.159Z,12.61
2019-03-21T11:37:34.662Z,12.47
2019-03-21T11:40:04.319Z,12.52
2019-03-21T11:42:33.912Z,12.47
2019-03-21T11:45:03.469Z,12.66
2019-03-21T11:47:41.611Z,12.52
2019-03-21T11:50:05.175Z,12.70
2019-03-21T11:52:34.626Z,12.71
2019-03-21T11:55:04.654Z,12.82
2019-03-21T11:57:34.236Z,12.80
2019-03-21T12:00:04.252Z,12.71
2019-03-21T12:02:33.799Z,12.53
2019-03-21T12:05:03.312Z,12.44
2019-03-21T12:07:32.874Z,12.44
2019-03-21T12:10:02.476Z,12.46
2019-03-21T12:12:31.946Z,12.31
2019-03-21T12:15:01.453Z,12.33
2019-03-21T12:17:30.921Z,12.34
2019-03-21T12:20:00.622Z,12.38
2019-03-21T12:22:30.616Z,12.43
2019-03-21T12:25:00.342Z,12.47
2019-03-21T12:27:29.953Z,12.43
2019-03-21T12:29:59.838Z,12.43
2019-03-21T12:32:29.427Z,12.41
2019-03-21T12:34:58.976Z,12.37
2019-03-21T12:37:28.528Z,12.42
2019-03-21T12:39:58.120Z,12.48
2019-03-21T12:42:27.667Z,12.51
2019-03-21T12:44:57.255Z,12.68
2019-03-21T12:47:31.138Z,12.97
2019-03-21T12:49:58.119Z,13.22
2019-03-21T12:52:27.643Z,13.20
2019-03-21T12:54:57.202Z,13.43
2019-03-21T12:57:26.762Z,13.71
2019-03-21T12:59:56.341Z,13.72
2019-03-21T13:02:32.210Z,13.68
2019-03-21T13:04:57.202Z,13.71
2019-03-21T13:07:26.757Z,13.50
2019-03-21T13:09:56.446Z,13.32
2019-03-21T13:12:25.995Z,13.36
2019-03-21T13:14:55.591Z,13.45
2019-03-21T13:17:25.181Z,13.31
2019-03-21T13:19:54.702Z,13.16
2019-03-21T13:22:24.346Z,13.02
2019-03-21T13:24:53.864Z,12.82
2019-03-21T13:27:23.336Z,12.81
2019-03-21T13:29:52.918Z,12.71
2019-03-21T13:32:22.394Z,12.53
2019-03-21T13:34:52.277Z,12.50
2019-03-21T13:37:21.787Z,12.48
2019-03-21T13:39:51.263Z,12.44
2019-03-21T13:42:20.852Z,12.31
2019-03-21T13:44:51.463Z,12.24
2019-03-21T13:47:21.023Z,12.18
2019-03-21T13:49:50.634Z,12.08
2019-03-21T13:52:20.227Z,12.19
2019-03-21T13:54:49.851Z,12.07
2019-03-21T13:57:19.399Z,11.95
2019-03-21T13:59:48.968Z,12.01
2019-03-21T14:02:18.563Z,12.07
2019-03-21T14:04:48.538Z,11.85
2019-03-21T14:07:18.189Z,11.79
2019-03-21T14:09:47.739Z,11.90
2019-03-21T14:12:17.287Z,11.90
2019-03-21T14:14:46.875Z,12.00
2019-03-21T14:17:21.907Z,11.95
2019-03-21T14:19:48.039Z,11.81
2019-03-21T14:22:17.586Z,11.96
2019-03-21T14:24:47.169Z,11.91
2019-03-21T14:27:16.819Z,11.95
2019-03-21T14:29:46.408Z,11.96
2019-03-21T14:32:15.955Z,12.02
2019-03-21T14:34:45.534Z,12.00
2019-03-21T14:37:15.466Z,11.92
2019-03-21T14:39:45.012Z,11.93
2019-03-21T14:42:14.685Z,11.88
2019-03-21T14:44:44.242Z,11.89
2019-03-21T14:47:13.851Z,11.83
2019-03-21T14:49:43.393Z,11.91
2019-03-21T14:52:12.937Z,11.89
2019-03-21T14:54:42.624Z,11.65
2019-03-21T14:57:12.170Z,11.64
2019-03-21T14:59:41.760Z,11.64
2019-03-21T15:02:11.304Z,11.64
2019-03-21T15:04:41.258Z,11.58
2019-03-21T15:07:10.843Z,11.63
2019-03-21T15:09:40.468Z,11.50
2019-03-21T15:12:10.081Z,11.41
2019-03-21T15:14:39.976Z,11.37
2019-03-21T15:17:09.560Z,11.39
2019-03-21T15:19:39.449Z,11.28
2019-03-21T15:22:09.089Z,11.23
2019-03-21T15:24:38.631Z,11.31
2019-03-21T15:27:08.225Z,11.33
2019-03-21T15:29:37.767Z,11.38
2019-03-21T15:32:07.310Z,11.30
2019-03-21T15:34:36.902Z,11.11
2019-03-21T15:37:06.455Z,11.10
2019-03-21T15:39:36.046Z,11.10
2019-03-21T15:42:05.597Z,11.05
2019-03-21T15:44:35.076Z,11.01
2019-03-21T15:47:04.654Z,11.09
2019-03-21T15:49:34.240Z,11.08
2019-03-21T15:52:03.891Z,10.95
2019-03-21T15:54:33.485Z,10.99
2019-03-21T15:57:03.032Z,10.95
2019-03-21T15:59:32.581Z,10.92
2019-03-21T16:02:02.158Z,10.93
2019-03-21T16:04:31.792Z,10.88
2019-03-21T16:07:01.344Z,10.86
2019-03-21T16:09:30.936Z,10.91
2019-03-21T16:12:00.527Z,10.85
2019-03-21T16:14:30.025Z,10.74
2019-03-21T16:16:59.624Z,10.80
2019-03-21T16:19:29.923Z,10.81
2019-03-21T16:21:59.607Z,10.79
2019-03-21T16:24:29.196Z,10.79
2019-03-21T16:26:58.739Z,10.76
2019-03-21T16:29:30.256Z,10.78
2019-03-21T16:32:02.326Z,10.75
2019-03-21T16:34:31.118Z,10.76
2019-03-21T16:37:00.697Z,10.72
2019-03-21T16:39:30.281Z,10.69
2019-03-21T16:41:59.826Z,10.58
2019-03-21T16:44:29.345Z,10.60
2019-03-21T16:46:58.923Z,10.58
2019-03-21T16:49:30.798Z,10.59
2019-03-21T16:52:00.171Z,10.64
2019-03-21T16:54:30.375Z,10.59
2019-03-21T16:57:00.004Z,10.59
2019-03-21T16:59:29.543Z,10.56
2019-03-21T17:01:59.131Z,10.45
2019-03-21T17:04:28.684Z,10.32
2019-03-21T17:06:58.329Z,10.26
2019-03-21T17:09:27.878Z,10.25
2019-03-21T17:11:57.449Z,10.22
2019-03-21T17:14:26.914Z,10.21
2019-03-21T17:16:56.559Z,10.21
2019-03-21T17:19:26.133Z,10.29
2019-03-21T17:21:55.802Z,10.19
2019-03-21T17:24:29.628Z,10.15
2019-03-21T17:26:56.903Z,10.13
2019-03-21T17:29:26.604Z,10.12
2019-03-21T17:31:56.147Z,10.13
2019-03-21T17:34:25.703Z,10.05
2019-03-21T17:36:55.320Z,10.05
2019-03-21T17:39:25.248Z,9.96
2019-03-21T17:41:57.696Z,10.04
2019-03-21T17:44:27.652Z,10.10
2019-03-21T17:46:57.293Z,10.08
2019-03-21T17:49:26.901Z,10.04
2019-03-21T17:51:56.433Z,9.97
2019-03-21T17:54:25.983Z,9.88
2019-03-21T17:56:55.673Z,9.86
2019-03-21T17:59:25.281Z,9.77
2019-03-21T18:01:55.114Z,9.78
2019-03-21T18:04:24.763Z,9.78
2019-03-21T18:06:54.452Z,9.67
2019-03-21T18:09:23.994Z,9.69
2019-03-21T18:11:53.583Z,9.71
2019-03-21T18:14:23.142Z,9.76
2019-03-21T18:16:52.832Z,9.79
2019-03-21T18:19:22.419Z,9.77
2019-03-21T18:21:51.994Z,9.79
2019-03-21T18:24:21.586Z,9.73
2019-03-21T18:26:51.126Z,9.69
2019-03-21T18:29:20.667Z,9.74
2019-03-21T18:31:50.247Z,9.81
2019-03-21T18:34:19.849Z,9.79
2019-03-21T18:36:49.392Z,9.74
2019-03-21T18:39:18.934Z,9.66
2019-03-21T18:41:48.440Z,9.67
2019-03-21T18:44:17.983Z,9.74
2019-03-21T18:46:47.571Z,9.71
2019-03-21T18:49:17.137Z,9.63
2019-03-21T18:51:46.763Z,9.59
2019-03-21T18:54:16.315Z,9.67
2019-03-21T18:56:46.022Z,9.63
2019-03-21T18:59:15.649Z,9.61
2019-03-21T19:01:57.669Z,9.66
2019-03-21T19:04:16.515Z,9.63
2019-03-21T19:06:46.194Z,9.61
2019-03-21T19:09:15.749Z,9.55
2019-03-21T19:11:45.329Z,9.52
2019-03-21T19:14:15.449Z,9.46
2019-03-21T19:16:45.000Z,9.51
2019-03-21T19:19:14.535Z,9.45
2019-03-21T19:21:44.120Z,9.44
2019-03-21T19:24:13.685Z,9.44
2019-03-21T19:26:43.264Z,9.41
2019-03-21T19:29:14.977Z,9.43
2019-03-21T19:31:44.123Z,9.41
2019-03-21T19:34:13.703Z,9.42
2019-03-21T19:36:43.355Z,9.37
2019-03-21T19:39:12.982Z,9.43
2019-03-21T19:41:42.568Z,9.39
2019-03-21T19:44:12.109Z,9.43
2019-03-21T19:46:41.615Z,9.45
2019-03-21T19:49:11.480Z,9.50
2019-03-21T19:51:41.126Z,9.49
2019-03-21T19:54:10.799Z,9.46
2019-03-21T19:56:40.387Z,9.43
2019-03-21T19:59:09.959Z,9.43
2019-03-21T20:01:39.468Z,9.42
2019-03-21T20:04:09.065Z,9.41
2019-03-21T20:06:38.649Z,9.45
2019-03-21T20:09:08.776Z,9.42
2019-03-21T20:11:38.360Z,9.47
2019-03-21T20:14:07.979Z,9.52
2019-03-21T20:16:37.584Z,9.50
2019-03-21T20:19:07.129Z,9.50
2019-03-21T20:21:47.333Z,9.51
2019-03-21T20:24:08.130Z,9.48
2019-03-21T20:26:37.675Z,9.41
2019-03-21T20:29:07.263Z,9.38
2019-03-21T20:31:36.853Z,9.37
2019-03-21T20:34:06.457Z,9.41
2019-03-21T20:36:36.064Z,9.36
2019-03-21T20:39:07.874Z,9.40
2019-03-21T20:41:37.514Z,9.37
2019-03-21T20:44:15.180Z,9.40
2019-03-21T20:46:38.312Z,9.37
2019-03-21T20:49:08.150Z,9.33
2019-03-21T20:51:37.829Z,9.30
2019-03-21T20:54:07.479Z,9.35
2019-03-21T20:56:37.067Z,9.35
2019-03-21T20:59:06.709Z,9.37
2019-03-21T21:01:36.286Z,9.38
2019-03-21T21:04:05.876Z,9.37
2019-03-21T21:06:35.414Z,9.35
2019-03-21T21:09:07.043Z,9.31
2019-03-21T21:11:36.654Z,9.35
2019-03-21T21:14:06.200Z,9.31
2019-03-21T21:16:35.789Z,9.22
2019-03-21T21:19:05.356Z,9.24
2019-03-21T21:21:34.947Z,9.13
2019-03-21T21:24:04.846Z,9.20
2019-03-21T21:26:34.429Z,9.13
2019-03-21T21:29:04.071Z,9.11
2019-03-21T21:31:33.626Z,9.08
2019-03-21T21:34:03.145Z,9.10
2019-03-21T21:36:32.774Z,9.06
2019-03-21T21:39:02.310Z,9.02
2019-03-21T21:41:32.009Z,9.01
2019-03-21T21:44:01.483Z,9.03
2019-03-21T21:46:31.806Z,8.98
2019-03-21T21:49:01.348Z,8.96
2019-03-21T21:51:30.886Z,9.03
2019-03-21T21:54:00.577Z,8.97
2019-03-21T21:56:30.118Z,8.97
2019-03-21T21:58:59.667Z,8.87
2019-03-21T22:01:29.233Z,8.82
2019-03-21T22:04:04.659Z,8.87
2019-03-21T22:06:30.262Z,8.84
2019-03-21T22:08:59.932Z,8.91
2019-03-21T22:11:29.523Z,8.86
2019-03-21T22:13:59.073Z,8.91
2019-03-21T22:16:28.783Z,8.87
2019-03-21T22:18:58.622Z,8.91
2019-03-21T22:21:28.176Z,8.94
2019-03-21T22:23:57.757Z,8.94
2019-03-21T22:26:29.801Z,8.89
2019-03-21T22:28:58.708Z,8.90
2019-03-21T22:31:28.255Z,8.97
2019-03-21T22:33:57.841Z,8.99
2019-03-21T22:36:27.385Z,8.99
2019-03-21T22:38:56.926Z,8.98
2019-03-21T22:41:26.505Z,8.93
2019-03-21T22:43:56.379Z,8.98
2019-03-21T22:46:25.961Z,8.96
2019-03-21T22:48:55.479Z,8.90
2019-03-21T22:51:25.024Z,8.88
2019-03-21T22:53:54.891Z,8.87
2019-03-21T22:56:24.724Z,8.89
2019-03-21T22:58:54.239Z,8.89
2019-03-21T23:01:23.914Z,8.91
2019-03-21T23:03:53.494Z,8.96
2019-03-21T23:06:23.183Z,8.96
2019-03-21T23:08:53.066Z,8.84
2019-03-21T23:11:22.761Z,8.80
2019-03-21T23:13:52.343Z,8.78
2019-03-21T23:16:21.985Z,8.81
2019-03-21T23:18:51.578Z,8.84
2019-03-21T23:21:21.122Z,8.82
2019-03-21T23:23:50.672Z,8.77
2019-03-21T23:26:20.266Z,8.71
2019-03-21T23:28:49.911Z,8.76
2019-03-21T23:31:19.478Z,8.78
2019-03-21T23:33:49.162Z,8.82
2019-03-21T23:36:18.745Z,8.74
2019-03-21T23:38:48.289Z,8.74
2019-03-21T23:41:18.189Z,8.75
2019-03-21T23:43:47.734Z,8.68
2019-03-21T23:46:17.320Z,8.76
2019-03-21T23:48:46.862Z,8.72
2019-03-21T23:51:16.443Z,8.58
2019-03-21T23:53:46.365Z,8.55
2019-03-21T23:56:15.951Z,8.57
2019-03-21T23:58:45.495Z,8.62
